Terminal Aerodrome Forecast
Issued by NWS

Home | Current Version | Previous Version | Text Only | Print | Product List | Glossary On
Versions: 1 2 3 4 5 6 7 8 9 10 11 12 13 14 15 16 17 18 19
619
FTUS43 KGRR 281738 AAA
TAFMKG
TAF AMD
KMKG 281738Z 2818/0118 16012G20KT P6SM VCSH OVC009
     FM281900 15015KT 5SM -SHRA BR VCTS OVC007CB
     FM282200 15016KT 2SM BR OVC003
     FM010000 16016KT 1SM -SHRA BR VCTS OVC003CB WS020/23035KT
     FM010500 30005KT 3/4SM RA OVC003 WS020/23035KT
     FM010900 01006KT 1SM -RA BR OVC008
     FM011700 33014G24KT 3SM -RA OVC010=

USA.gov is the U.S. government's official web portal to all federal, state and local government web resources and services.